Bend, OR (97702)

12:11 AM PST on December 26, 2014 (GMT -0800)
SE Bend | Change Station
CLOSE
Current Station
Personal Weather Station
Location: Bend, OR
Elevation: 3760 ft
Nearby Weather Stations

Elev 3760 ft 44.02 °N, 121.27 °W | Updated 11 minutes ago

Clear
Clear
25.6 °F
Feels Like 26 °F
N
0.0
Wind Variable Wind from SW
Gusts 3.0 mph

Today
High -- | Low -- °F
--% Chance of Precip.
Yesterday
High -- | Low -- °F
Precip. -- in
7:38 AM 4:32 PM
Waxing Crescent, 23% visible
Pressure 30.19 in
Visibility 10.0 miles
Clouds Few 4700 ft
Windchill 26 °F
Dew Point 23 °F
Humidity 89%
Rainfall 0.08 in
Snow Depth Not available.
UV 0 out of 12
Pollen .50 out of 12
Air Quality Not available.
Flu Activity Not available.
METAR KBDN 260755Z AUTO 00000KT 10SM FEW047 M03/M05 A3019 RMK AO2

More Conditions Fewer Conditions

Pressure 30.19 in
Visibility 10.0 miles
Clouds Few 4700 ft
Windchill 26 °F
Dew Point 23 °F
Humidity 89%
Rainfall 0.08 in
Snow Depth Not available.
UV 0 out of 12
Pollen .50 out of 12
Air Quality Not available.
Flu Activity Not available.
METAR KBDN 260755Z AUTO 00000KT 10SM FEW047 M03/M05 A3019 RMK AO2

More Conditions Fewer Conditions

10-Day Weather Forecast

Almanac

Astronomy

Dec. 26, 2014 Rise Set
Actual Time
Civil Twilight
Nautical Twilight
Astronomical Twilight
Moon
Length of Visible Light
Length of Day
Tomorrow will be .
, % of the Moon is Illuminated

Today's Extremes

State Highs State Lows

Community

WunderPhotos

Upload Photos

1,780,570 photos uploaded!

WunderBlogs® & News

Nearby

Air Quality

  Air Quality AQ Index Pollutant
Not available.

Snow Depth

Station Depth Elevation

Earthquake Activity

City Distance Mag. Time & Date
Minimum magnitude displayed is 2.5.

Coastal Water Temperatures

Place Temperature

Nearby Weather Stations